メインページ
METAR-TAF:

METAR-TAF

空港 :

エルドラド国際空港

ボゴタ, コロンビア

緯度: 04-43N, 経度: 074-09W, 海抜: 2547m

現時点の気象観測

当レポートは35分前の07:00(UTC)に作成
の風 3kt
気温 13°C
湿度 94%
気圧 1028 hPa
視程: 9000m
高度1500ftの雲はほとんどない
高度7000ftの雲は散在している

METAR: SKBO 240700Z 35003KT 9000 FEW015 SCT070 13/12 A3036 RMK HZ

時間: 02:35 (07:35 UTC)

予報

当レポートは2時間35分前の05:00(UTC)に作成
予報は24日の 06時(UTC)から 25日の 06時(UTC)まで有効
北東の風 3kt
視程10km以上
高度2000ftの雲は散在している
高度8000ftの雲は散在している
24日の 06時(UTC)から 24日の 08時(UTC)まで一時的に
視程: 8000m
高度1700ftの雲は散在している, 塔状積雲.
近辺で霧, 小雨
24日の 09時(UTC)から 24日の 13時(UTC)まで一時的に
視程: 7000m
高度1300ftの雲は散在している
近辺で霧, 小霧雨
24日の 14時(UTC)から 24日の 16時(UTC)まで徐々に
西の風 8kt
24日の 19時(UTC)から 24日の 23時(UTC)まで一時的に
視程: 7000m
高度1700ftの雲は散在している, 積乱雲.
雨, 霧雨

TAF: SKBO 240500Z 2406/2506 04003KT 9999 SCT020 SCT080 TEMPO 2406/2408 8000 VCFG -RA SCT017TCU TEMPO 2409/2413 7000 VCFG -DZ SCT013 BECMG 2414/2416 26008KT TEMPO 2419/2423 7000 RADZ SCT017CB TX19/2418Z TN10/2411Z

4,000以上の空港の気象観測と天気予報(METAR報とTAF報)

利用可能な観測所は地図上に黄色い丸と赤い丸で示す。

丸の上にカーソルを重ねると観測所名を参照できる。

次にクリックすると気象観測と天気予報を参照できる。

マップの切り替え:黒色「×」印の緑ボタンをクリックして拡大、「-」印の緑ボタンをクリックして縮小、緑色の三角印をクリックして隣りの地図に切り替え


METAR-TAF: